DW4604 Weather Reports


time (UTC)temp
C
wind
direction
speed
KPH
gust
KPH
rain 1hr
cm
rain 24hr
cm
rain mn
cm
humidity
%
barometer
mb
20200606184937 20 323 1.6 3.2 0.00 0.03 0.00 72 1006.0
20200606184436 20 322 0.0 3.2 0.00 0.03 0.00 73 1006.0
20200606183936 20 322 0.0 1.6 0.00 0.03 0.00 72 1005.9
20200606183436 20 322 0.0 3.2 0.00 0.03 0.00 71 1005.9
20200606182937 21 322 0.0 3.2 0.00 0.03 0.00 70 1006.0
20200606182436 21 0 0.0 0.0 0.00 0.03 0.00 69 1005.9
20200606181936 21 0 0.0 0.0 0.00 0.03 0.00 66 1006.0
20200606181436 21 0 0.0 0.0 0.00 0.03 0.00 66 1006.0
20200606180937 21 0 0.0 0.0 0.00 0.03 0.00 66 1006.0
20200606180437 21 0 0.0 0.0 0.00 0.03 0.00 67 1006.0
20200606175936 21 323 0.0 1.6 0.00 0.03 0.00 66 1006.0
20200606175437 21 322 0.0 1.6 0.00 0.03 0.00 66 1006.0
20200606174936 21 322 0.0 1.6 0.00 0.03 0.00 66 1006.0
20200606174436 21 322 0.0 1.6 0.00 0.03 0.00 65 1006.0
20200606173936 22 322 0.0 1.6 0.00 0.03 0.00 64 1006.0
20200606173437 22 322 0.0 1.6 0.00 0.03 0.00 62 1005.9
20200606172937 22 322 0.0 3.2 0.00 0.03 0.00 61 1005.9
20200606172436 22 323 1.6 3.2 0.00 0.03 0.00 61 1005.9
20200606171936 22 324 1.6 4.8 0.00 0.03 0.00 60 1005.8
20200606171437 22 325 0.0 4.8 0.00 0.03 0.00 59 1005.8
20200606170937 23 323 1.6 3.2 0.00 0.05 0.00 59 1005.8
20200606170436 23 318 1.6 4.8 0.00 0.10 0.00 58 1005.9
20200606165937 23 315 3.2 8.0 0.00 0.15 0.00 57 1005.8
20200606165437 23 313 1.6 8.0 0.00 0.15 0.00 56 1005.8
20200606164936 24 301 0.0 6.4 0.00 0.15 0.00 56 1005.7
20200606164437 24 245 0.0 3.2 0.00 0.15 0.00 55 1005.7
20200606163936 24 238 1.6 8.0 0.00 0.15 0.00 55 1005.7
20200606163437 24 240 1.6 8.0 0.00 0.15 0.00 53 1005.6
20200606162937 24 246 0.0 6.4 0.00 0.15 0.00 53 1005.6
20200606162437 24 252 0.0 3.2 0.00 0.15 0.00 53 1005.6
20200606161936 24 252 0.0 3.2 0.00 0.15 0.00 54 1005.6
20200606161436 24 223 1.6 6.4 0.00 0.15 0.00 54 1005.6
20200606160937 24 223 3.2 9.7 0.00 0.15 0.00 52 1005.5
20200606160437 24 220 3.2 9.7 0.00 0.15 0.00 51 1005.6
20200606155937 25 206 3.2 11.3 0.00 0.15 0.00 51 1005.5
20200606155437 25 222 4.8 14.5 0.00 0.15 0.00 51 1005.5
20200606154937 25 235 6.4 24.1 0.00 0.15 0.00 50 1005.4
20200606154437 25 232 8.0 24.1 0.00 0.15 0.00 50 1005.4
20200606153937 25 229 8.0 17.7 0.00 0.15 0.00 49 1005.4
20200606153437 25 228 4.8 17.7 0.00 0.15 0.00 49 1005.5
20200606152937 25 227 4.8 11.3 0.00 0.15 0.00 49 1005.5
20200606152437 25 223 4.8 12.9 0.00 0.15 0.00 50 1005.5
20200606151938 25 228 4.8 12.9 0.00 0.15 0.00 49 1005.6
20200606151437 25 228 4.8 12.9 0.00 0.15 0.00 48 1005.5
20200606150937 25 216 3.2 12.9 0.00 0.15 0.00 48 1005.5
20200606150437 25 193 1.6 6.4 0.00 0.15 0.00 49 1005.6
20200606145937 25 238 1.6 8.0 0.00 0.15 0.00 50 1005.6
20200606145437 25 207 3.2 9.7 0.00 0.15 0.00 50 1005.7
20200606144937 24 174 4.8 11.3 0.00 0.15 0.00 50 1005.7
20200606144438 24 185 4.8 11.3 0.00 0.15 0.00 51 1005.7
20200606143937 24 207 4.8 9.7 0.00 0.15 0.00 51 1005.8
20200606143437 24 201 6.4 12.9 0.00 0.15 0.00 51 1005.7
20200606142937 24 224 6.4 14.5 0.00 0.15 0.00 51 1005.8
20200606142437 24 239 4.8 14.5 0.00 0.15 0.00 52 1005.8
20200606141938 24 229 1.6 9.7 0.00 0.15 0.00 50 1005.8
20200606141437 24 215 1.6 6.4 0.00 0.15 0.00 51 1005.8
20200606140937 23 231 3.2 9.7 0.00 0.15 0.00 51 1005.9
20200606140437 23 249 4.8 14.5 0.00 0.15 0.00 51 1005.9
20200606135938 24 241 6.4 16.1 0.00 0.15 0.00 50 1006.0
20200606135437 24 248 4.8 16.1 0.00 0.15 0.00 50 1006.0
20200606134937 25 263 1.6 11.3 0.00 0.15 0.00 50 1006.0
20200606134437 24 228 3.2 12.9 0.00 0.15 0.00 52 1006.1
20200606133937 23 235 6.4 17.7 0.00 0.15 0.00 52 1006.1
20200606133437 24 237 6.4 19.3 0.00 0.15 0.00 51 1006.2
20200606132938 24 236 4.8 19.3 0.00 0.15 0.00 51 1006.1
20200606132437 24 228 4.8 11.3 0.00 0.15 0.00 52 1006.1
20200606131937 23 226 4.8 11.3 0.00 0.15 0.00 53 1006.1
20200606131438 23 233 4.8 14.5 0.00 0.15 0.00 52 1006.2
20200606130937 24 247 4.8 17.7 0.00 0.15 0.00 51 1006.3
20200606130439 24 244 6.4 19.3 0.00 0.15 0.00 53 1006.2
20200606125938 23 236 8.0 24.1 0.00 0.15 0.00 53 1006.1
20200606125438 23 235 8.0 24.1 0.00 0.15 0.00 53 1006.2
20200606124937 23 237 6.4 17.7 0.00 0.15 0.00 53 1006.2
20200606124438 24 250 4.8 14.5 0.00 0.15 0.00 52 1006.2
20200606123938 24 245 6.4 17.7 0.00 0.15 0.00 53 1006.3
20200606123438 23 238 6.4 17.7 0.00 0.15 0.00 54 1006.2
20200606122938 23 241 8.0 20.9 0.00 0.15 0.00 53 1006.4
20200606122438 23 242 8.0 22.5 0.00 0.15 0.00 53 1006.3
20200606121937 23 241 9.7 22.5 0.00 0.15 0.00 52 1006.4
20200606121438 23 238 8.0 27.4 0.00 0.15 0.00 53 1006.4
20200606120938 24 242 6.4 27.4 0.00 0.15 0.00 51 1006.4
20200606120438 24 242 6.4 27.4 0.00 0.15 0.00 53 1006.3
20200606115938 23 239 8.0 27.4 0.00 0.18 0.00 53 1006.4
20200606115438 23 247 6.4 19.3 0.00 0.18 0.00 51 1006.3
20200606114941 24 274 4.8 14.5 0.00 0.18 0.00 52 1006.4
20200606114438 23 254 8.0 20.9 0.00 0.18 0.00 52 1006.4
20200606113937 23 245 9.7 20.9 0.00 0.18 0.00 51 1006.4
20200606113439 23 242 9.7 24.1 0.00 0.18 0.00 51 1006.2
20200606112938 23 236 12.9 29.0 0.00 0.18 0.00 52 1006.2
20200606112438 23 234 14.5 29.0 0.00 0.18 0.00 53 1006.3
20200606111938 23 234 12.9 32.2 0.00 0.18 0.00 52 1006.3
20200606111438 23 235 9.7 32.2 0.00 0.18 0.00 53 1006.3
20200606110938 22 236 9.7 22.5 0.00 0.18 0.00 55 1006.4
20200606110437 22 237 11.3 22.5 0.00 0.18 0.00 54 1006.4
20200606105938 22 237 12.9 29.0 0.00 0.18 0.00 53 1006.4
20200606105438 22 233 11.3 29.0 0.00 0.18 0.00 52 1006.4
20200606104938 22 233 11.3 27.4 0.00 0.18 0.00 52 1006.4
20200606104438 22 229 11.3 22.5 0.00 0.18 0.00 52 1006.2
20200606103938 23 226 9.7 19.3 0.00 0.18 0.00 53 1006.1
20200606103438 22 228 11.3 30.6 0.00 0.18 0.00 54 1006.1
20200606102938 22 230 11.3 30.6 0.00 0.20 0.00 51 1006.2
20200606102441 22 235 9.7 29.0 0.00 0.20 0.00 54 1006.1
20200606101939 22 234 9.7 24.1 0.00 0.20 0.00 54 1006.3
20200606101438 22 231 9.7 24.1 0.00 0.20 0.00 53 1006.2
20200606100938 21 229 9.7 20.9 0.00 0.20 0.00 56 1006.3
20200606100450 21 224 9.7 20.9 0.00 0.20 0.00 55 1006.3
20200606095938 22 194 11.3 24.1 0.00 0.20 0.00 55 1006.1
20200606095438 22 188 11.3 25.7 0.00 0.20 0.00 55 1006.3
20200606094939 22 215 11.3 37.0 0.00 0.20 0.00 56 1006.2
20200606094438 21 228 11.3 37.0 0.00 0.20 0.00 57 1006.3
20200606093939 21 232 11.3 25.7 0.00 0.20 0.00 58 1006.2
20200606093438 21 232 11.3 25.7 0.00 0.20 0.00 58 1006.2
20200606092939 21 225 9.7 19.3 0.00 0.23 0.00 58 1006.2
20200606092439 21 214 9.7 22.5 0.00 0.23 0.00 59 1006.1
20200606091438 21 232 9.7 17.7 0.00 0.23 0.00 58 1006.0
20200606090938 21 233 11.3 19.3 0.00 0.23 0.00 58 1006.2
20200606090438 21 228 8.0 22.5 0.00 0.23 0.00 57 1006.2
20200606085938 21 225 6.4 22.5 0.00 0.23 0.00 56 1006.4
20200606085439 21 215 8.0 17.7 0.00 0.23 0.00 60 1006.1
20200606084938 21 220 8.0 20.9 0.00 0.23 0.00 59 1006.0
20200606084438 20 224 9.7 20.9 0.00 0.23 0.00 61 1006.0
20200606083939 20 214 9.7 20.9 0.00 0.23 0.00 59 1006.0
20200606083438 20 215 9.7 20.9 0.00 0.23 0.00 60 1006.0
20200606082939 20 229 11.3 22.5 0.00 0.23 0.00 61 1006.0
20200606082438 20 235 11.3 24.1 0.00 0.23 0.00 60 1006.1
20200606081939 20 229 11.3 24.1 0.00 0.23 0.00 61 1006.0
20200606081438 20 227 11.3 22.5 0.00 0.23 0.00 60 1006.2
20200606080938 20 231 11.3 24.1 0.00 0.23 0.00 62 1006.1
20200606080439 19 233 9.7 24.1 0.00 0.23 0.00 61 1006.0
20200606075938 20 233 6.4 16.1 0.00 0.23 0.00 63 1005.8
20200606075439 19 234 8.0 19.3 0.00 0.23 0.00 64 1005.8
20200606074939 19 233 8.0 19.3 0.00 0.23 0.00 63 1005.8
20200606074439 19 236 9.7 19.3 0.00 0.23 0.00 66 1005.8
20200606073939 18 238 11.3 20.9 0.00 0.23 0.00 65 1005.7
20200606073439 18 234 12.9 24.1 0.00 0.23 0.00 65 1005.8
20200606072938 18 234 11.3 24.1 0.00 0.23 0.00 65 1005.7
20200606072439 18 234 11.3 27.4 0.00 0.23 0.00 67 1005.7
20200606071938 18 231 11.3 27.4 0.00 0.23 0.00 66 1005.7
20200606071439 18 231 9.7 20.9 0.00 0.23 0.00 65 1005.8
20200606070938 18 233 9.7 20.9 0.00 0.23 0.00 68 1005.7
20200606070439 18 232 9.7 19.3 0.00 0.23 0.00 68 1005.6
20200606065939 18 233 8.0 19.3 0.00 0.23 0.00 68 1005.7
20200606065439 18 236 8.0 19.3 0.00 0.23 0.00 67 1005.7
20200606064939 17 236 9.7 22.5 0.00 0.23 0.00 68 1005.7
20200606064439 17 236 11.3 22.5 0.00 0.23 0.00 68 1005.8
20200606063939 17 235 12.9 24.1 0.00 0.23 0.00 69 1005.7
20200606063439 17 231 11.3 24.1 0.00 0.23 0.00 69 1005.8
20200606062939 17 232 9.7 20.9 0.00 0.23 0.00 69 1005.8
20200606062439 17 237 8.0 19.3 0.00 0.23 0.00 69 1005.6
20200606061939 17 239 6.4 17.7 0.00 0.23 0.00 70 1005.6
20200606061439 17 236 8.0 24.1 0.00 0.23 0.00 72 1005.5
20200606060938 17 234 9.7 24.1 0.00 0.23 0.00 73 1005.5
20200606060439 16 233 8.0 17.7 0.00 0.23 0.00 73 1005.4
20200606055939 16 230 9.7 22.5 0.00 0.23 0.00 73 1005.4
20200606055439 16 232 11.3 24.1 0.00 0.23 0.00 74 1005.4
20200606054939 16 231 9.7 24.1 0.00 0.23 0.00 74 1005.3
20200606054439 16 228 6.4 16.1 0.00 0.23 0.00 75 1005.2
20200606053940 16 232 6.4 16.1 0.00 0.23 0.00 77 1005.3
20200606053439 16 234 8.0 17.7 0.00 0.23 0.00 77 1005.3
20200606052939 15 230 6.4 17.7 0.00 0.23 0.00 77 1005.4
20200606052439 15 231 8.0 16.1 0.00 0.23 0.00 78 1005.4
20200606051939 15 232 8.0 17.7 0.00 0.23 0.00 79 1005.3
20200606051439 15 230 6.4 17.7 0.00 0.23 0.00 80 1005.2
20200606050939 15 231 8.0 16.1 0.00 0.23 0.00 81 1005.0
20200606050439 15 231 8.0 16.1 0.00 0.23 0.00 81 1005.0
20200606045939 15 226 6.4 17.7 0.00 0.23 0.00 81 1004.8
20200606045440 15 222 6.4 17.7 0.00 0.23 0.00 81 1004.5
20200606044939 14 220 4.8 11.3 0.00 0.23 0.00 82 1004.6
20200606044439 14 219 4.8 9.7 0.00 0.23 0.00 82 1004.6
20200606043939 14 225 6.4 17.7 0.00 0.23 0.00 83 1004.6
20200606043439 14 229 8.0 17.7 0.00 0.23 0.00 83 1004.5
20200606042939 13 229 6.4 17.7 0.00 0.23 0.00 84 1004.6
20200606042439 13 227 6.4 17.7 0.00 0.23 0.00 84 1004.6
20200606041940 13 225 6.4 16.1 0.00 0.23 0.00 84 1004.6
20200606041439 13 228 6.4 12.9 0.00 0.23 0.00 84 1004.6
20200606040940 13 227 6.4 17.7 0.00 0.23 0.00 84 1004.6
20200606040439 13 225 6.4 17.7 0.00 0.23 0.00 84 1004.6
20200606035940 13 224 6.4 12.9 0.00 0.23 0.00 85 1004.4
20200606035439 13 208 4.8 12.9 0.00 0.23 0.00 85 1004.3
20200606034939 13 207 4.8 9.7 0.00 0.23 0.00 85 1004.1
20200606034440 13 225 4.8 12.9 0.00 0.23 0.00 85 1004.1
20200606033939 13 225 4.8 14.5 0.00 0.23 0.00 85 1004.0
20200606033439 13 224 4.8 14.5 0.00 0.23 0.00 86 1004.1
20200606032940 12 230 4.8 12.9 0.00 0.23 0.00 86 1004.1
20200606032439 12 233 6.4 12.9 0.00 0.23 0.00 87 1004.0
20200606031940 12 232 4.8 12.9 0.00 0.23 0.00 87 1004.0
20200606031439 12 233 3.2 11.3 0.00 0.23 0.00 88 1003.9
20200606030940 12 232 3.2 9.7 0.00 0.23 0.00 88 1003.9
20200606030440 12 232 3.2 9.7 0.00 0.23 0.00 89 1003.8
20200606025939 12 232 3.2 9.7 0.00 0.23 0.00 89 1003.8
20200606025440 12 230 4.8 9.7 0.00 0.23 0.00 89 1003.7
20200606024939 12 232 4.8 9.7 0.00 0.23 0.00 89 1003.7
20200606024440 12 229 3.2 9.7 0.00 0.23 0.00 89 1003.6
20200606023940 12 226 4.8 12.9 0.00 0.23 0.00 89 1003.6
20200606023439 12 229 4.8 14.5 0.00 0.23 0.00 89 1003.5
20200606022940 12 230 4.8 14.5 0.00 0.23 0.00 89 1003.5
20200606022439 12 229 6.4 12.9 0.00 0.23 0.00 89 1003.6
20200606021940 12 232 6.4 16.1 0.00 0.23 0.00 89 1003.6
20200606021440 12 232 6.4 16.1 0.00 0.23 0.00 89 1003.5
20200606020939 12 232 6.4 19.3 0.00 0.23 0.00 89 1003.4
20200606020440 12 232 6.4 19.3 0.00 0.23 0.00 90 1003.5
20200606015940 12 227 3.2 14.5 0.00 0.23 0.00 90 1003.4
20200606015440 12 227 4.8 11.3 0.00 0.23 0.00 90 1003.4
20200606014940 12 232 4.8 14.5 0.00 0.23 0.00 90 1003.3
20200606014439 12 232 6.4 14.5 0.00 0.23 0.00 90 1003.2
20200606013940 12 232 6.4 14.5 0.00 0.23 0.00 90 1003.2
20200606013439 12 232 6.4 14.5 0.00 0.23 0.00 90 1003.1
20200606012940 12 229 6.4 14.5 0.00 0.23 0.00 90 1003.1
20200606012440 12 227 6.4 14.5 0.00 0.23 0.00 90 1003.1
20200606011940 12 228 4.8 11.3 0.00 0.23 0.00 90 1003.1
20200606011440 12 229 4.8 12.9 0.00 0.23 0.00 90 1003.1
20200606010940 12 230 4.8 12.9 0.00 0.23 0.00 90 1003.2
20200606010440 12 225 4.8 11.3 0.00 0.23 0.00 90 1003.0
20200606005940 12 223 4.8 11.3 0.00 0.23 0.00 90 1002.9
20200606005440 12 227 4.8 11.3 0.00 0.23 0.00 89 1002.9
20200606004940 12 229 4.8 14.5 0.00 0.23 0.00 89 1003.0
20200606004440 12 227 6.4 14.5 0.00 0.23 0.00 89 1003.0
20200606003940 12 224 6.4 14.5 0.00 0.23 0.00 89 1002.8
20200606003440 12 225 6.4 14.5 0.00 0.23 0.00 90 1002.9
20200606002940 12 227 6.4 14.5 0.00 0.23 0.00 90 1002.8
20200606002440 12 227 6.4 12.9 0.00 0.23 0.00 90 1002.8
20200606001940 12 228 4.8 16.1 0.00 0.23 0.00 90 1002.7
20200606001440 12 229 4.8 16.1 0.00 0.23 0.00 91 1002.7
20200606000941 12 230 4.8 11.3 0.00 0.23 0.00 91 1002.7
20200606000440 12 232 6.4 14.5 0.00 0.23 0.00 91 1002.6
20200605235940 12 230 4.8 14.5 0.00 0.23 0.00 92 1002.6
20200605235441 12 227 4.8 11.3 0.00 0.23 0.00 92 1002.4
20200605234940 12 227 4.8 9.7 0.00 0.23 0.00 92 1002.4
20200605234441 12 225 3.2 9.7 0.00 0.23 0.00 92 1002.2
20200605233940 12 227 3.2 9.7 0.00 0.23 0.00 92 1002.2
20200605233440 12 229 3.2 11.3 0.00 0.23 0.00 92 1002.1
20200605232941 12 227 4.8 11.3 0.00 0.23 0.00 93 1002.0
20200605232440 12 225 3.2 11.3 0.00 0.23 0.00 93 1002.0
20200605231940 12 221 3.2 12.9 0.00 0.23 0.00 93 1002.0
20200605231441 12 224 4.8 12.9 0.00 0.23 0.00 93 1002.0
20200605230940 12 226 4.8 14.5 0.00 0.23 0.00 93 1001.9
20200605230440 12 225 3.2 14.5 0.00 0.23 0.00 93 1001.8
20200605225941 12 227 3.2 9.7 0.00 0.23 0.00 93 1001.7
20200605225440 12 230 4.8 9.7 0.00 0.23 0.00 93 1001.7
20200605224941 12 232 4.8 11.3 0.00 0.23 0.00 93 1001.7
20200605224441 12 232 4.8 11.3 0.00 0.23 0.00 94 1001.7
20200605223940 12 232 4.8 16.1 0.00 0.23 0.00 94 1001.7
20200605223441 12 230 3.2 16.1 0.00 0.23 0.00 94 1001.6
20200605222940 12 225 3.2 9.7 0.00 0.23 0.00 94 1001.5
20200605222440 12 227 3.2 9.7 0.00 0.23 0.00 95 1001.4
20200605221941 12 230 1.6 4.8 0.00 0.23 0.00 95 1001.3
20200605221440 12 230 0.0 3.2 0.03 0.23 0.00 95 1001.4
20200605220940 12 221 1.6 4.8 0.03 0.23 0.00 95 1001.4
20200605220441 12 216 0.0 4.8 0.03 0.23 0.00 95 1001.3
20200605215942 11 227 0.0 3.2 0.03 0.23 0.00 95 1001.3
20200605215441 11 227 0.0 3.2 0.03 0.23 0.23 95 1001.3
20200605214940 11 224 0.0 3.2 0.03 0.23 0.23 95 1001.3
20200605214441 11 223 0.0 3.2 0.03 0.23 0.23 95 1001.1
20200605213940 12 226 0.0 1.6 0.03 0.23 0.23 95 1001.2
20200605213440 12 0 0.0 0.0 0.03 0.23 0.23 95 1001.2
20200605212941 12 0 0.0 0.0 0.03 0.23 0.23 95 1001.1
20200605212441 12 227 0.0 1.6 0.03 0.23 0.23 95 1001.1
20200605211940 12 227 0.0 1.6 0.03 0.23 0.23 95 1001.1
20200605211441 12 227 0.0 1.6 0.00 0.23 0.23 95 1001.0
20200605210941 12 227 0.0 1.6 0.00 0.23 0.23 95 1001.2
20200605210440 12 219 0.0 1.6 0.00 0.23 0.23 95 1001.1
20200605205941 12 198 0.0 1.6 0.00 0.23 0.23 95 1001.1
20200605205441 12 223 0.0 3.2 0.00 0.23 0.23 95 1001.1
20200605204941 12 219 0.0 4.8 0.00 0.23 0.23 95 1001.1
20200605204440 12 178 0.0 4.8 0.00 0.23 0.23 95 1001.0
20200605203941 12 166 0.0 3.2 0.00 0.23 0.23 95 1000.9
20200605203441 12 164 0.0 3.2 0.00 0.23 0.23 95 1000.8
20200605202941 12 160 0.0 3.2 0.00 0.23 0.23 95 1000.8
20200605202440 12 162 0.0 1.6 0.00 0.23 0.23 94 1000.8
20200605201941 12 162 0.0 3.2 0.00 0.23 0.23 94 1000.8
20200605201441 12 163 0.0 3.2 0.00 0.23 0.23 94 1000.9
20200605200941 12 174 1.6 3.2 0.00 0.23 0.23 94 1000.8
20200605200441 13 175 1.6 3.2 0.00 0.23 0.23 94 1000.8
20200605195941 13 175 0.0 3.2 0.00 0.23 0.23 94 1000.8
20200605195441 13 204 0.0 4.8 0.00 0.23 0.23 94 1000.9
20200605194941 13 189 0.0 4.8 0.00 0.23 0.23 94 1000.8
20200605194441 13 167 0.0 3.2 0.00 0.23 0.23 94 1000.6
20200605193941 13 176 0.0 3.2 0.00 0.23 0.23 95 1000.7
20200605193441 13 0 0.0 0.0 0.00 0.23 0.23 95 1000.6
20200605192941 13 0 0.0 0.0 0.00 0.23 0.23 95 1000.7
20200605192441 13 0 0.0 0.0 0.00 0.23 0.23 95 1000.5
20200605191942 13 0 0.0 0.0 0.00 0.23 0.23 95 1000.4
20200605191441 13 0 0.0 0.0 0.00 0.23 0.23 95 1000.4
20200605190941 13 0 0.0 0.0 0.00 0.23 0.23 95 1000.4
20200605190441 13 0 0.0 0.0 0.00 0.23 0.23 95 1000.2
20200605185941 13 0 0.0 0.0 0.00 0.23 0.23 95 1000.2
20200605185441 13 0 0.0 0.0 0.00 0.23 0.23 95 1000.2